Cameron, North Carolina
Current Conditions -  °F | °C
As of 9:55 AM on Monday 24 Nov 2014 (Local Time) from KSOP Reporting Station
Overcast Overcast  
Wind Chill: 64°   Ceiling: 3500
Heat Index: 64°   Visibility: 10mi
Dew Point:   Wind: 13mph
Humidity: 11%   Direction: 210°SSW
Pressure: 29.85"   Gusts: 16mph
Location:  35.33°N, 79.26°W
Report Text: KSOP 241455Z AUTO 21011G14KT 10SM OVC035 18/M13 A2985 RMK AO1 52010
Loading
Personal Weather Stations






























Interactive Weather Map New forecast layout! Learn more

10-Day Weather Forecast

Advertisements
Track Severe Weather on mobile